sensor_id;sensor_type;location;lat;lon;timestamp;P1;durP1;ratioP1;P2;durP2;ratioP2
58470;SDS011;44258;51.288;12.068;2023-06-22T00:01:45;15.95;;;10.27;;
58470;SDS011;44258;51.288;12.068;2023-06-22T00:04:32;16.48;;;10.18;;
58470;SDS011;44258;51.288;12.068;2023-06-22T00:07:19;17.73;;;10.50;;
58470;SDS011;44258;51.288;12.068;2023-06-22T00:10:06;16.02;;;9.75;;
58470;SDS011;44258;51.288;12.068;2023-06-22T00:12:55;15.10;;;9.40;;
58470;SDS011;44258;51.288;12.068;2023-06-22T00:15:42;14.77;;;9.95;;
58470;SDS011;44258;51.288;12.068;2023-06-22T00:18:29;15.82;;;9.50;;
58470;SDS011;44258;51.288;12.068;2023-06-22T00:21:17;15.27;;;9.73;;
58470;SDS011;44258;51.288;12.068;2023-06-22T00:24:05;15.55;;;9.43;;
58470;SDS011;44258;51.288;12.068;2023-06-22T00:26:53;15.48;;;9.27;;
58470;SDS011;44258;51.288;12.068;2023-06-22T00:29:41;18.50;;;9.60;;
58470;SDS011;44258;51.288;12.068;2023-06-22T00:32:28;14.23;;;9.15;;
58470;SDS011;44258;51.288;12.068;2023-06-22T00:35:15;18.35;;;11.00;;
58470;SDS011;44258;51.288;12.068;2023-06-22T00:38:01;17.40;;;9.90;;
58470;SDS011;44258;51.288;12.068;2023-06-22T00:40:50;16.13;;;10.00;;
58470;SDS011;44258;51.288;12.068;2023-06-22T00:43:37;15.57;;;9.70;;
58470;SDS011;44258;51.288;12.068;2023-06-22T00:46:25;14.30;;;9.60;;
58470;SDS011;44258;51.288;12.068;2023-06-22T00:49:12;14.23;;;9.23;;
58470;SDS011;44258;51.288;12.068;2023-06-22T00:51:59;15.85;;;9.85;;
58470;SDS011;44258;51.288;12.068;2023-06-22T00:54:46;16.75;;;9.77;;
58470;SDS011;44258;51.288;12.068;2023-06-22T00:57:34;15.60;;;9.50;;
58470;SDS011;44258;51.288;12.068;2023-06-22T01:00:23;16.60;;;10.25;;
58470;SDS011;44258;51.288;12.068;2023-06-22T01:03:12;14.93;;;9.70;;
58470;SDS011;44258;51.288;12.068;2023-06-22T01:06:01;15.25;;;10.48;;
58470;SDS011;44258;51.288;12.068;2023-06-22T01:08:57;16.67;;;9.55;;
58470;SDS011;44258;51.288;12.068;2023-06-22T01:11:51;17.10;;;9.68;;
58470;SDS011;44258;51.288;12.068;2023-06-22T01:14:45;18.60;;;11.07;;
58470;SDS011;44258;51.288;12.068;2023-06-22T01:17:37;19.20;;;11.20;;
58470;SDS011;44258;51.288;12.068;2023-06-22T01:20:28;15.70;;;10.00;;
58470;SDS011;44258;51.288;12.068;2023-06-22T01:23:21;17.73;;;10.70;;
58470;SDS011;44258;51.288;12.068;2023-06-22T01:26:17;18.50;;;10.75;;
58470;SDS011;44258;51.288;12.068;2023-06-22T01:29:08;16.65;;;11.02;;
58470;SDS011;44258;51.288;12.068;2023-06-22T01:31:59;16.30;;;10.75;;
58470;SDS011;44258;51.288;12.068;2023-06-22T01:34:47;16.65;;;10.40;;
58470;SDS011;44258;51.288;12.068;2023-06-22T01:37:35;16.33;;;10.15;;
58470;SDS011;44258;51.288;12.068;2023-06-22T01:40:26;16.70;;;10.43;;
58470;SDS011;44258;51.288;12.068;2023-06-22T01:43:14;20.17;;;12.77;;
58470;SDS011;44258;51.288;12.068;2023-06-22T01:46:03;20.77;;;12.45;;
58470;SDS011;44258;51.288;12.068;2023-06-22T01:48:51;20.00;;;12.20;;
58470;SDS011;44258;51.288;12.068;2023-06-22T01:51:42;21.13;;;12.95;;
58470;SDS011;44258;51.288;12.068;2023-06-22T01:54:29;19.48;;;13.45;;
58470;SDS011;44258;51.288;12.068;2023-06-22T01:57:16;20.30;;;12.52;;
58470;SDS011;44258;51.288;12.068;2023-06-22T02:00:03;20.13;;;12.20;;
58470;SDS011;44258;51.288;12.068;2023-06-22T02:02:56;18.00;;;12.18;;
58470;SDS011;44258;51.288;12.068;2023-06-22T02:05:48;19.05;;;12.10;;
58470;SDS011;44258;51.288;12.068;2023-06-22T02:08:40;20.33;;;12.07;;
58470;SDS011;44258;51.288;12.068;2023-06-22T02:11:31;17.73;;;11.55;;
58470;SDS011;44258;51.288;12.068;2023-06-22T02:14:20;16.60;;;10.30;;
58470;SDS011;44258;51.288;12.068;2023-06-22T02:17:10;20.10;;;11.82;;
58470;SDS011;44258;51.288;12.068;2023-06-22T02:19:59;19.60;;;11.82;;
58470;SDS011;44258;51.288;12.068;2023-06-22T02:22:50;20.83;;;12.07;;
58470;SDS011;44258;51.288;12.068;2023-06-22T02:25:36;19.08;;;11.73;;
58470;SDS011;44258;51.288;12.068;2023-06-22T02:28:23;18.25;;;11.85;;
58470;SDS011;44258;51.288;12.068;2023-06-22T02:31:10;22.60;;;12.80;;
58470;SDS011;44258;51.288;12.068;2023-06-22T02:33:57;20.80;;;12.00;;
58470;SDS011;44258;51.288;12.068;2023-06-22T02:36:46;22.45;;;11.90;;
58470;SDS011;44258;51.288;12.068;2023-06-22T02:39:36;22.02;;;11.35;;
58470;SDS011;44258;51.288;12.068;2023-06-22T02:42:23;25.95;;;12.05;;
58470;SDS011;44258;51.288;12.068;2023-06-22T02:45:10;25.02;;;13.10;;
58470;SDS011;44258;51.288;12.068;2023-06-22T02:47:57;25.38;;;12.63;;
58470;SDS011;44258;51.288;12.068;2023-06-22T02:50:45;22.63;;;13.40;;
58470;SDS011;44258;51.288;12.068;2023-06-22T02:53:33;22.95;;;12.73;;
58470;SDS011;44258;51.288;12.068;2023-06-22T02:56:20;25.25;;;13.68;;
58470;SDS011;44258;51.288;12.068;2023-06-22T02:59:10;20.33;;;12.10;;
58470;SDS011;44258;51.288;12.068;2023-06-22T03:01:57;25.38;;;12.73;;
58470;SDS011;44258;51.288;12.068;2023-06-22T03:04:44;19.30;;;12.27;;
58470;SDS011;44258;51.288;12.068;2023-06-22T03:07:34;23.27;;;13.05;;
58470;SDS011;44258;51.288;12.068;2023-06-22T03:10:23;24.25;;;13.07;;
58470;SDS011;44258;51.288;12.068;2023-06-22T03:13:10;23.77;;;13.13;;
58470;SDS011;44258;51.288;12.068;2023-06-22T03:15:57;22.30;;;13.10;;
58470;SDS011;44258;51.288;12.068;2023-06-22T03:18:44;20.13;;;13.35;;
58470;SDS011;44258;51.288;12.068;2023-06-22T03:21:30;23.02;;;13.27;;
58470;SDS011;44258;51.288;12.068;2023-06-22T03:24:17;25.98;;;13.55;;
58470;SDS011;44258;51.288;12.068;2023-06-22T03:27:07;23.33;;;12.68;;
58470;SDS011;44258;51.288;12.068;2023-06-22T03:29:54;21.55;;;12.43;;
58470;SDS011;44258;51.288;12.068;2023-06-22T03:32:41;22.58;;;12.98;;
58470;SDS011;44258;51.288;12.068;2023-06-22T03:35:29;23.73;;;12.68;;
58470;SDS011;44258;51.288;12.068;2023-06-22T03:38:16;26.55;;;13.13;;
58470;SDS011;44258;51.288;12.068;2023-06-22T03:41:03;25.48;;;13.68;;
58470;SDS011;44258;51.288;12.068;2023-06-22T03:43:51;26.60;;;13.13;;
58470;SDS011;44258;51.288;12.068;2023-06-22T03:46:38;20.08;;;11.50;;
58470;SDS011;44258;51.288;12.068;2023-06-22T03:49:25;24.08;;;12.15;;
58470;SDS011;44258;51.288;12.068;2023-06-22T03:52:12;23.38;;;12.07;;
58470;SDS011;44258;51.288;12.068;2023-06-22T03:55:01;21.75;;;12.93;;
58470;SDS011;44258;51.288;12.068;2023-06-22T03:57:49;23.48;;;12.77;;
58470;SDS011;44258;51.288;12.068;2023-06-22T04:00:37;23.00;;;12.80;;
58470;SDS011;44258;51.288;12.068;2023-06-22T04:03:24;27.38;;;14.93;;
58470;SDS011;44258;51.288;12.068;2023-06-22T04:06:11;21.98;;;13.82;;
58470;SDS011;44258;51.288;12.068;2023-06-22T04:08:58;23.83;;;14.18;;
58470;SDS011;44258;51.288;12.068;2023-06-22T04:11:46;23.05;;;14.50;;
58470;SDS011;44258;51.288;12.068;2023-06-22T04:14:33;25.70;;;14.60;;
58470;SDS011;44258;51.288;12.068;2023-06-22T04:17:21;25.15;;;13.68;;
58470;SDS011;44258;51.288;12.068;2023-06-22T04:20:10;17.13;;;10.55;;
58470;SDS011;44258;51.288;12.068;2023-06-22T04:22:57;22.48;;;13.48;;
58470;SDS011;44258;51.288;12.068;2023-06-22T04:25:44;24.55;;;14.45;;
58470;SDS011;44258;51.288;12.068;2023-06-22T04:28:31;22.70;;;13.80;;
58470;SDS011;44258;51.288;12.068;2023-06-22T04:31:20;23.95;;;13.98;;
58470;SDS011;44258;51.288;12.068;2023-06-22T04:34:11;22.23;;;12.93;;
58470;SDS011;44258;51.288;12.068;2023-06-22T04:36:58;20.13;;;12.55;;
58470;SDS011;44258;51.288;12.068;2023-06-22T04:39:44;23.15;;;13.60;;
58470;SDS011;44258;51.288;12.068;2023-06-22T04:42:33;21.02;;;13.13;;
58470;SDS011;44258;51.288;12.068;2023-06-22T04:45:21;24.27;;;13.55;;
58470;SDS011;44258;51.288;12.068;2023-06-22T04:48:08;21.42;;;13.02;;
58470;SDS011;44258;51.288;12.068;2023-06-22T04:50:56;23.20;;;13.15;;
58470;SDS011;44258;51.288;12.068;2023-06-22T04:53:48;20.88;;;13.30;;
58470;SDS011;44258;51.288;12.068;2023-06-22T04:56:35;22.05;;;13.80;;
58470;SDS011;44258;51.288;12.068;2023-06-22T04:59:22;26.80;;;14.52;;
58470;SDS011;44258;51.288;12.068;2023-06-22T05:02:14;25.02;;;13.05;;
58470;SDS011;44258;51.288;12.068;2023-06-22T05:05:00;19.83;;;12.80;;
58470;SDS011;44258;51.288;12.068;2023-06-22T05:07:53;24.90;;;14.43;;
58470;SDS011;44258;51.288;12.068;2023-06-22T05:10:45;24.10;;;14.70;;
58470;SDS011;44258;51.288;12.068;2023-06-22T05:13:32;25.70;;;14.70;;
58470;SDS011;44258;51.288;12.068;2023-06-22T05:16:19;24.88;;;14.18;;
58470;SDS011;44258;51.288;12.068;2023-06-22T05:19:10;25.45;;;15.13;;
58470;SDS011;44258;51.288;12.068;2023-06-22T05:21:57;22.20;;;14.32;;
58470;SDS011;44258;51.288;12.068;2023-06-22T05:24:45;24.80;;;15.30;;
58470;SDS011;44258;51.288;12.068;2023-06-22T05:27:32;29.45;;;16.17;;
58470;SDS011;44258;51.288;12.068;2023-06-22T05:30:19;25.88;;;15.25;;
58470;SDS011;44258;51.288;12.068;2023-06-22T05:33:06;27.48;;;15.88;;
58470;SDS011;44258;51.288;12.068;2023-06-22T05:35:53;25.65;;;15.73;;
58470;SDS011;44258;51.288;12.068;2023-06-22T05:38:40;25.65;;;15.70;;
58470;SDS011;44258;51.288;12.068;2023-06-22T05:41:31;26.58;;;14.90;;
58470;SDS011;44258;51.288;12.068;2023-06-22T05:44:18;23.98;;;15.00;;
58470;SDS011;44258;51.288;12.068;2023-06-22T05:47:05;22.33;;;13.60;;
58470;SDS011;44258;51.288;12.068;2023-06-22T05:49:52;20.83;;;13.55;;
58470;SDS011;44258;51.288;12.068;2023-06-22T05:52:42;23.13;;;14.32;;
58470;SDS011;44258;51.288;12.068;2023-06-22T05:55:29;22.48;;;14.07;;
58470;SDS011;44258;51.288;12.068;2023-06-22T05:58:18;23.90;;;14.10;;
58470;SDS011;44258;51.288;12.068;2023-06-22T06:01:05;23.10;;;13.98;;
58470;SDS011;44258;51.288;12.068;2023-06-22T06:03:52;21.45;;;13.20;;
58470;SDS011;44258;51.288;12.068;2023-06-22T06:06:38;23.30;;;12.90;;
58470;SDS011;44258;51.288;12.068;2023-06-22T06:09:25;23.30;;;14.10;;
58470;SDS011;44258;51.288;12.068;2023-06-22T06:12:12;22.73;;;13.23;;
58470;SDS011;44258;51.288;12.068;2023-06-22T06:15:00;22.35;;;13.23;;
58470;SDS011;44258;51.288;12.068;2023-06-22T06:17:47;20.38;;;12.90;;
58470;SDS011;44258;51.288;12.068;2023-06-22T06:20:35;20.48;;;12.98;;
58470;SDS011;44258;51.288;12.068;2023-06-22T06:23:22;24.05;;;12.55;;
58470;SDS011;44258;51.288;12.068;2023-06-22T06:26:09;20.15;;;12.25;;
58470;SDS011;44258;51.288;12.068;2023-06-22T06:28:56;19.48;;;11.98;;
58470;SDS011;44258;51.288;12.068;2023-06-22T06:31:49;22.55;;;11.93;;
58470;SDS011;44258;51.288;12.068;2023-06-22T06:34:36;23.38;;;12.23;;
58470;SDS011;44258;51.288;12.068;2023-06-22T06:37:22;22.63;;;13.48;;
58470;SDS011;44258;51.288;12.068;2023-06-22T06:40:10;22.00;;;13.18;;
58470;SDS011;44258;51.288;12.068;2023-06-22T06:42:59;19.77;;;12.13;;
58470;SDS011;44258;51.288;12.068;2023-06-22T06:45:46;18.60;;;12.13;;
58470;SDS011;44258;51.288;12.068;2023-06-22T06:48:34;18.63;;;11.35;;
58470;SDS011;44258;51.288;12.068;2023-06-22T06:51:21;22.92;;;12.50;;
58470;SDS011;44258;51.288;12.068;2023-06-22T06:54:08;21.63;;;11.90;;
58470;SDS011;44258;51.288;12.068;2023-06-22T06:56:55;19.60;;;11.23;;
58470;SDS011;44258;51.288;12.068;2023-06-22T06:59:42;19.95;;;11.63;;
58470;SDS011;44258;51.288;12.068;2023-06-22T07:02:32;19.73;;;12.25;;
58470;SDS011;44258;51.288;12.068;2023-06-22T07:05:20;17.70;;;11.25;;
58470;SDS011;44258;51.288;12.068;2023-06-22T07:08:07;19.45;;;11.30;;
58470;SDS011;44258;51.288;12.068;2023-06-22T07:10:54;16.70;;;10.15;;
58470;SDS011;44258;51.288;12.068;2023-06-22T07:13:41;17.13;;;10.60;;
58470;SDS011;44258;51.288;12.068;2023-06-22T07:16:28;18.27;;;11.23;;
58470;SDS011;44258;51.288;12.068;2023-06-22T07:19:16;18.15;;;10.85;;
58470;SDS011;44258;51.288;12.068;2023-06-22T07:22:12;16.02;;;10.55;;
58470;SDS011;44258;51.288;12.068;2023-06-22T07:24:59;16.73;;;10.73;;
58470;SDS011;44258;51.288;12.068;2023-06-22T07:28:01;15.52;;;10.48;;
58470;SDS011;44258;51.288;12.068;2023-06-22T07:30:49;18.38;;;10.07;;
58470;SDS011;44258;51.288;12.068;2023-06-22T07:33:36;18.38;;;10.23;;
58470;SDS011;44258;51.288;12.068;2023-06-22T07:36:23;17.75;;;10.90;;
58470;SDS011;44258;51.288;12.068;2023-06-22T07:39:11;17.92;;;10.25;;
58470;SDS011;44258;51.288;12.068;2023-06-22T07:41:59;15.68;;;10.45;;
58470;SDS011;44258;51.288;12.068;2023-06-22T07:44:46;16.98;;;9.85;;
58470;SDS011;44258;51.288;12.068;2023-06-22T07:47:33;15.48;;;9.25;;
58470;SDS011;44258;51.288;12.068;2023-06-22T07:50:20;16.63;;;9.25;;
58470;SDS011;44258;51.288;12.068;2023-06-22T07:53:07;15.30;;;9.15;;
58470;SDS011;44258;51.288;12.068;2023-06-22T07:55:55;13.45;;;8.68;;
58470;SDS011;44258;51.288;12.068;2023-06-22T07:58:42;15.18;;;9.18;;
58470;SDS011;44258;51.288;12.068;2023-06-22T08:01:29;15.20;;;9.68;;
58470;SDS011;44258;51.288;12.068;2023-06-22T08:04:16;14.93;;;9.32;;
58470;SDS011;44258;51.288;12.068;2023-06-22T08:07:03;16.55;;;9.80;;
58470;SDS011;44258;51.288;12.068;2023-06-22T08:09:50;15.07;;;9.88;;
58470;SDS011;44258;51.288;12.068;2023-06-22T08:12:39;13.98;;;8.82;;
58470;SDS011;44258;51.288;12.068;2023-06-22T08:15:26;13.82;;;9.05;;
58470;SDS011;44258;51.288;12.068;2023-06-22T08:18:15;13.93;;;8.38;;
58470;SDS011;44258;51.288;12.068;2023-06-22T08:21:02;15.32;;;8.85;;
58470;SDS011;44258;51.288;12.068;2023-06-22T08:23:49;13.23;;;9.10;;
58470;SDS011;44258;51.288;12.068;2023-06-22T08:26:36;13.23;;;9.35;;
58470;SDS011;44258;51.288;12.068;2023-06-22T08:29:25;14.73;;;9.90;;
58470;SDS011;44258;51.288;12.068;2023-06-22T08:32:12;14.38;;;8.50;;
58470;SDS011;44258;51.288;12.068;2023-06-22T08:34:59;13.95;;;9.13;;
58470;SDS011;44258;51.288;12.068;2023-06-22T08:37:45;14.73;;;9.07;;
58470;SDS011;44258;51.288;12.068;2023-06-22T08:40:37;14.65;;;9.13;;
58470;SDS011;44258;51.288;12.068;2023-06-22T08:43:24;13.88;;;9.00;;
58470;SDS011;44258;51.288;12.068;2023-06-22T08:46:13;13.90;;;8.63;;
58470;SDS011;44258;51.288;12.068;2023-06-22T08:49:06;15.38;;;9.68;;
58470;SDS011;44258;51.288;12.068;2023-06-22T08:51:55;12.70;;;7.97;;
58470;SDS011;44258;51.288;12.068;2023-06-22T08:54:42;13.40;;;8.60;;
58470;SDS011;44258;51.288;12.068;2023-06-22T08:57:29;12.35;;;8.55;;
58470;SDS011;44258;51.288;12.068;2023-06-22T09:00:18;13.45;;;8.85;;
58470;SDS011;44258;51.288;12.068;2023-06-22T09:03:07;13.52;;;8.65;;
58470;SDS011;44258;51.288;12.068;2023-06-22T09:05:56;12.85;;;8.57;;
58470;SDS011;44258;51.288;12.068;2023-06-22T09:08:43;13.80;;;9.05;;
58470;SDS011;44258;51.288;12.068;2023-06-22T09:11:32;14.63;;;8.32;;
58470;SDS011;44258;51.288;12.068;2023-06-22T09:14:22;14.30;;;8.80;;
58470;SDS011;44258;51.288;12.068;2023-06-22T09:17:09;13.27;;;8.25;;
58470;SDS011;44258;51.288;12.068;2023-06-22T09:19:57;12.77;;;8.15;;
58470;SDS011;44258;51.288;12.068;2023-06-22T09:22:45;13.23;;;8.38;;
58470;SDS011;44258;51.288;12.068;2023-06-22T09:25:32;12.77;;;8.30;;
58470;SDS011;44258;51.288;12.068;2023-06-22T09:28:19;12.05;;;7.30;;
58470;SDS011;44258;51.288;12.068;2023-06-22T09:31:06;12.45;;;7.47;;
58470;SDS011;44258;51.288;12.068;2023-06-22T09:33:53;11.43;;;7.15;;
58470;SDS011;44258;51.288;12.068;2023-06-22T09:36:42;13.57;;;6.70;;
58470;SDS011;44258;51.288;12.068;2023-06-22T09:39:29;10.73;;;6.72;;
58470;SDS011;44258;51.288;12.068;2023-06-22T09:42:16;10.00;;;6.60;;
58470;SDS011;44258;51.288;12.068;2023-06-22T09:45:03;12.50;;;7.28;;
58470;SDS011;44258;51.288;12.068;2023-06-22T09:47:51;10.75;;;6.35;;
58470;SDS011;44258;51.288;12.068;2023-06-22T09:50:38;13.30;;;6.53;;
58470;SDS011;44258;51.288;12.068;2023-06-22T09:53:26;11.02;;;5.93;;
58470;SDS011;44258;51.288;12.068;2023-06-22T09:56:14;10.23;;;6.50;;
58470;SDS011;44258;51.288;12.068;2023-06-22T09:59:01;10.57;;;6.55;;
58470;SDS011;44258;51.288;12.068;2023-06-22T10:01:48;9.00;;;5.60;;
58470;SDS011;44258;51.288;12.068;2023-06-22T10:04:35;10.93;;;6.65;;
58470;SDS011;44258;51.288;12.068;2023-06-22T10:07:22;10.25;;;5.82;;
58470;SDS011;44258;51.288;12.068;2023-06-22T10:10:10;10.10;;;5.53;;
58470;SDS011;44258;51.288;12.068;2023-06-22T10:13:02;10.02;;;5.88;;
58470;SDS011;44258;51.288;12.068;2023-06-22T10:15:53;9.82;;;6.20;;
58470;SDS011;44258;51.288;12.068;2023-06-22T10:18:40;11.27;;;6.63;;
58470;SDS011;44258;51.288;12.068;2023-06-22T10:21:28;9.57;;;5.72;;
58470;SDS011;44258;51.288;12.068;2023-06-22T10:24:14;10.40;;;6.35;;
58470;SDS011;44258;51.288;12.068;2023-06-22T10:27:03;10.90;;;5.75;;
58470;SDS011;44258;51.288;12.068;2023-06-22T10:29:50;10.20;;;5.97;;
58470;SDS011;44258;51.288;12.068;2023-06-22T10:32:37;14.13;;;6.50;;
58470;SDS011;44258;51.288;12.068;2023-06-22T10:35:25;11.30;;;6.10;;
58470;SDS011;44258;51.288;12.068;2023-06-22T10:38:12;10.43;;;5.95;;
58470;SDS011;44258;51.288;12.068;2023-06-22T10:40:58;10.95;;;6.30;;
58470;SDS011;44258;51.288;12.068;2023-06-22T10:43:47;9.55;;;6.07;;
58470;SDS011;44258;51.288;12.068;2023-06-22T10:46:33;10.50;;;6.10;;
58470;SDS011;44258;51.288;12.068;2023-06-22T10:49:23;10.85;;;5.68;;
58470;SDS011;44258;51.288;12.068;2023-06-22T10:52:12;10.82;;;6.60;;
58470;SDS011;44258;51.288;12.068;2023-06-22T10:54:59;10.07;;;6.15;;
58470;SDS011;44258;51.288;12.068;2023-06-22T10:57:46;11.60;;;6.15;;
58470;SDS011;44258;51.288;12.068;2023-06-22T11:00:34;10.45;;;6.05;;
58470;SDS011;44258;51.288;12.068;2023-06-22T11:03:21;10.35;;;5.85;;
58470;SDS011;44258;51.288;12.068;2023-06-22T11:06:09;9.18;;;5.88;;
58470;SDS011;44258;51.288;12.068;2023-06-22T11:08:55;10.20;;;6.03;;
58470;SDS011;44258;51.288;12.068;2023-06-22T11:11:43;10.50;;;6.70;;
58470;SDS011;44258;51.288;12.068;2023-06-22T11:14:30;12.35;;;6.90;;
58470;SDS011;44258;51.288;12.068;2023-06-22T11:17:20;11.63;;;6.50;;
58470;SDS011;44258;51.288;12.068;2023-06-22T11:20:07;11.73;;;6.90;;
58470;SDS011;44258;51.288;12.068;2023-06-22T11:22:56;11.55;;;6.97;;
58470;SDS011;44258;51.288;12.068;2023-06-22T11:25:43;10.68;;;7.00;;
58470;SDS011;44258;51.288;12.068;2023-06-22T11:28:33;10.00;;;6.82;;
58470;SDS011;44258;51.288;12.068;2023-06-22T11:31:20;11.10;;;7.10;;
58470;SDS011;44258;51.288;12.068;2023-06-22T11:34:08;13.68;;;7.20;;
58470;SDS011;44258;51.288;12.068;2023-06-22T11:36:55;14.07;;;7.05;;
58470;SDS011;44258;51.288;12.068;2023-06-22T11:39:42;16.77;;;7.63;;
58470;SDS011;44258;51.288;12.068;2023-06-22T11:42:29;12.43;;;7.47;;
58470;SDS011;44258;51.288;12.068;2023-06-22T11:45:16;12.50;;;7.35;;
58470;SDS011;44258;51.288;12.068;2023-06-22T11:48:06;12.02;;;7.05;;
58470;SDS011;44258;51.288;12.068;2023-06-22T11:50:54;10.55;;;6.13;;
58470;SDS011;44258;51.288;12.068;2023-06-22T11:53:41;12.07;;;7.78;;
58470;SDS011;44258;51.288;12.068;2023-06-22T11:56:28;11.52;;;7.38;;
58470;SDS011;44258;51.288;12.068;2023-06-22T11:59:17;12.55;;;7.53;;
58470;SDS011;44258;51.288;12.068;2023-06-22T12:02:04;11.77;;;8.10;;
58470;SDS011;44258;51.288;12.068;2023-06-22T12:04:54;12.07;;;7.68;;
58470;SDS011;44258;51.288;12.068;2023-06-22T12:07:44;12.25;;;7.88;;
58470;SDS011;44258;51.288;12.068;2023-06-22T12:10:31;14.02;;;7.60;;
58470;SDS011;44258;51.288;12.068;2023-06-22T12:13:18;13.68;;;7.72;;
58470;SDS011;44258;51.288;12.068;2023-06-22T12:16:05;12.50;;;7.78;;
58470;SDS011;44258;51.288;12.068;2023-06-22T12:18:52;12.23;;;8.20;;
58470;SDS011;44258;51.288;12.068;2023-06-22T12:21:39;11.70;;;7.32;;
58470;SDS011;44258;51.288;12.068;2023-06-22T12:24:28;12.25;;;6.55;;
58470;SDS011;44258;51.288;12.068;2023-06-22T12:27:16;10.77;;;7.50;;
58470;SDS011;44258;51.288;12.068;2023-06-22T12:30:04;11.43;;;7.93;;
58470;SDS011;44258;51.288;12.068;2023-06-22T12:32:52;10.50;;;7.30;;
58470;SDS011;44258;51.288;12.068;2023-06-22T12:35:39;11.88;;;7.43;;
58470;SDS011;44258;51.288;12.068;2023-06-22T12:38:26;12.95;;;7.72;;
58470;SDS011;44258;51.288;12.068;2023-06-22T12:41:18;11.50;;;8.30;;
58470;SDS011;44258;51.288;12.068;2023-06-22T12:44:05;13.65;;;7.07;;
58470;SDS011;44258;51.288;12.068;2023-06-22T12:46:51;11.27;;;6.97;;
58470;SDS011;44258;51.288;12.068;2023-06-22T12:49:38;12.85;;;7.40;;
58470;SDS011;44258;51.288;12.068;2023-06-22T12:52:25;12.02;;;7.75;;
58470;SDS011;44258;51.288;12.068;2023-06-22T12:55:13;12.45;;;7.13;;
58470;SDS011;44258;51.288;12.068;2023-06-22T12:58:02;10.70;;;7.05;;
58470;SDS011;44258;51.288;12.068;2023-06-22T13:00:49;13.40;;;7.53;;
58470;SDS011;44258;51.288;12.068;2023-06-22T13:03:36;14.25;;;7.65;;
58470;SDS011;44258;51.288;12.068;2023-06-22T13:06:23;13.13;;;7.53;;
58470;SDS011;44258;51.288;12.068;2023-06-22T13:09:13;10.82;;;6.82;;
58470;SDS011;44258;51.288;12.068;2023-06-22T13:12:01;10.80;;;7.47;;
58470;SDS011;44258;51.288;12.068;2023-06-22T13:14:49;12.02;;;7.50;;
58470;SDS011;44258;51.288;12.068;2023-06-22T13:17:36;11.82;;;7.45;;
58470;SDS011;44258;51.288;12.068;2023-06-22T13:20:23;13.15;;;7.18;;
58470;SDS011;44258;51.288;12.068;2023-06-22T13:23:10;10.65;;;6.38;;
58470;SDS011;44258;51.288;12.068;2023-06-22T13:25:58;12.18;;;6.93;;
58470;SDS011;44258;51.288;12.068;2023-06-22T13:28:45;13.07;;;7.72;;
58470;SDS011;44258;51.288;12.068;2023-06-22T13:31:34;10.35;;;7.07;;
58470;SDS011;44258;51.288;12.068;2023-06-22T13:34:20;11.73;;;7.43;;
58470;SDS011;44258;51.288;12.068;2023-06-22T13:37:07;13.38;;;7.90;;
58470;SDS011;44258;51.288;12.068;2023-06-22T13:39:57;11.75;;;7.28;;
58470;SDS011;44258;51.288;12.068;2023-06-22T13:42:44;11.55;;;7.28;;
58470;SDS011;44258;51.288;12.068;2023-06-22T13:45:31;15.70;;;7.68;;
58470;SDS011;44258;51.288;12.068;2023-06-22T13:48:20;12.75;;;8.15;;
58470;SDS011;44258;51.288;12.068;2023-06-22T13:51:09;12.20;;;7.30;;
58470;SDS011;44258;51.288;12.068;2023-06-22T13:54:00;11.13;;;6.45;;
58470;SDS011;44258;51.288;12.068;2023-06-22T13:56:47;10.68;;;7.53;;
58470;SDS011;44258;51.288;12.068;2023-06-22T13:59:34;10.57;;;7.43;;
58470;SDS011;44258;51.288;12.068;2023-06-22T14:02:21;12.98;;;8.18;;
58470;SDS011;44258;51.288;12.068;2023-06-22T14:05:10;11.85;;;7.57;;
58470;SDS011;44258;51.288;12.068;2023-06-22T14:07:57;10.55;;;7.13;;
58470;SDS011;44258;51.288;12.068;2023-06-22T14:10:44;11.77;;;7.85;;
58470;SDS011;44258;51.288;12.068;2023-06-22T14:13:31;11.63;;;7.50;;
58470;SDS011;44258;51.288;12.068;2023-06-22T14:16:18;13.18;;;8.02;;
58470;SDS011;44258;51.288;12.068;2023-06-22T14:19:05;12.52;;;7.93;;
58470;SDS011;44258;51.288;12.068;2023-06-22T14:21:53;11.55;;;7.35;;
58470;SDS011;44258;51.288;12.068;2023-06-22T14:24:43;11.85;;;7.97;;
58470;SDS011;44258;51.288;12.068;2023-06-22T14:27:30;11.82;;;8.15;;
58470;SDS011;44258;51.288;12.068;2023-06-22T14:30:17;13.63;;;8.55;;
58470;SDS011;44258;51.288;12.068;2023-06-22T14:33:04;10.77;;;7.30;;
58470;SDS011;44258;51.288;12.068;2023-06-22T14:35:51;10.90;;;7.40;;
58470;SDS011;44258;51.288;12.068;2023-06-22T14:38:42;13.23;;;8.43;;
58470;SDS011;44258;51.288;12.068;2023-06-22T14:41:29;14.07;;;8.30;;
58470;SDS011;44258;51.288;12.068;2023-06-22T14:44:16;10.75;;;7.35;;
58470;SDS011;44258;51.288;12.068;2023-06-22T14:47:03;14.50;;;8.02;;
58470;SDS011;44258;51.288;12.068;2023-06-22T14:49:50;11.27;;;7.50;;
58470;SDS011;44258;51.288;12.068;2023-06-22T14:52:37;11.48;;;8.18;;
58470;SDS011;44258;51.288;12.068;2023-06-22T14:55:26;12.90;;;8.10;;
58470;SDS011;44258;51.288;12.068;2023-06-22T14:58:12;12.52;;;8.05;;
58470;SDS011;44258;51.288;12.068;2023-06-22T15:00:59;13.20;;;8.20;;
58470;SDS011;44258;51.288;12.068;2023-06-22T15:03:46;15.25;;;8.25;;
58470;SDS011;44258;51.288;12.068;2023-06-22T15:06:34;11.88;;;8.02;;
58470;SDS011;44258;51.288;12.068;2023-06-22T15:09:21;12.88;;;7.90;;
58470;SDS011;44258;51.288;12.068;2023-06-22T15:12:09;12.05;;;7.85;;
58470;SDS011;44258;51.288;12.068;2023-06-22T15:14:56;11.43;;;7.47;;
58470;SDS011;44258;51.288;12.068;2023-06-22T15:17:43;11.90;;;8.00;;
58470;SDS011;44258;51.288;12.068;2023-06-22T15:20:30;13.00;;;8.27;;
58470;SDS011;44258;51.288;12.068;2023-06-22T15:23:17;12.68;;;8.50;;
58470;SDS011;44258;51.288;12.068;2023-06-22T15:26:04;11.77;;;8.57;;
58470;SDS011;44258;51.288;12.068;2023-06-22T15:28:53;13.52;;;8.38;;
58470;SDS011;44258;51.288;12.068;2023-06-22T15:31:42;11.93;;;8.75;;
58470;SDS011;44258;51.288;12.068;2023-06-22T15:34:29;14.60;;;8.48;;
58470;SDS011;44258;51.288;12.068;2023-06-22T15:37:16;13.90;;;8.85;;
58470;SDS011;44258;51.288;12.068;2023-06-22T15:40:06;13.70;;;8.57;;
58470;SDS011;44258;51.288;12.068;2023-06-22T15:42:54;14.32;;;8.35;;
58470;SDS011;44258;51.288;12.068;2023-06-22T15:45:42;12.27;;;8.95;;
58470;SDS011;44258;51.288;12.068;2023-06-22T15:48:29;13.27;;;8.52;;
58470;SDS011;44258;51.288;12.068;2023-06-22T15:51:15;14.00;;;9.13;;
58470;SDS011;44258;51.288;12.068;2023-06-22T15:54:02;13.02;;;8.10;;
58470;SDS011;44258;51.288;12.068;2023-06-22T15:56:49;12.13;;;8.35;;
58470;SDS011;44258;51.288;12.068;2023-06-22T15:59:36;13.15;;;9.02;;
58470;SDS011;44258;51.288;12.068;2023-06-22T16:02:25;11.23;;;6.78;;
58470;SDS011;44258;51.288;12.068;2023-06-22T16:05:12;13.30;;;8.27;;
58470;SDS011;44258;51.288;12.068;2023-06-22T16:07:59;16.17;;;9.35;;
58470;SDS011;44258;51.288;12.068;2023-06-22T16:10:46;11.68;;;7.88;;
58470;SDS011;44258;51.288;12.068;2023-06-22T16:13:33;12.45;;;8.65;;
58470;SDS011;44258;51.288;12.068;2023-06-22T16:16:20;14.25;;;8.90;;